createdAt,value
2023-04-09T00:02:13.186Z,60.70
2023-04-09T00:04:40.585Z,61.10
2023-04-09T00:07:08.054Z,61.60
2023-04-09T00:09:35.619Z,61.60
2023-04-09T00:12:03.458Z,61.40
2023-04-09T00:14:30.793Z,61.50
2023-04-09T00:16:59.362Z,62.20
2023-04-09T00:19:26.595Z,62.20
2023-04-09T00:21:53.800Z,61.90
2023-04-09T00:24:21.047Z,62.20
2023-04-09T00:26:49.181Z,62.20
2023-04-09T00:29:16.702Z,62.80
2023-04-09T00:31:43.961Z,62.70
2023-04-09T00:34:12.543Z,62.70
2023-04-09T00:36:39.796Z,62.60
2023-04-09T00:39:07.001Z,62.70
2023-04-09T00:41:34.233Z,62.70
2023-04-09T00:44:01.456Z,62.80
2023-04-09T00:46:29.345Z,63.00
2023-04-09T00:48:56.680Z,63.00
2023-04-09T00:51:25.309Z,63.10
2023-04-09T00:53:53.392Z,63.00
2023-04-09T00:56:22.213Z,63.30
2023-04-09T00:58:49.909Z,63.60
2023-04-09T01:01:17.231Z,63.50
2023-04-09T01:03:44.735Z,64.10
2023-04-09T01:06:21.432Z,63.90
2023-04-09T01:08:59.274Z,64.00
2023-04-09T01:11:36.001Z,64.30
2023-04-09T01:14:10.579Z,64.10
2023-04-09T01:16:42.551Z,64.50
2023-04-09T01:19:17.159Z,64.70
2023-04-09T01:21:45.379Z,64.80
2023-04-09T01:24:22.998Z,64.90
2023-04-09T01:26:58.548Z,65.00
2023-04-09T01:29:35.872Z,65.30
2023-04-09T01:32:05.814Z,65.00
2023-04-09T01:34:34.125Z,65.30
2023-04-09T01:37:03.261Z,65.10
2023-04-09T01:39:31.305Z,65.10
2023-04-09T01:41:59.004Z,65.50
2023-04-09T01:44:27.503Z,65.70
2023-04-09T01:46:58.766Z,65.90
2023-04-09T01:49:26.517Z,66.00
2023-04-09T01:51:53.964Z,66.10
2023-04-09T01:54:21.154Z,66.30
2023-04-09T01:56:49.012Z,66.10
2023-04-09T01:59:16.436Z,66.20
2023-04-09T02:01:46.951Z,66.20
2023-04-09T02:04:22.627Z,66.30
2023-04-09T02:06:58.067Z,66.70
2023-04-09T02:09:29.422Z,66.70
2023-04-09T02:11:58.937Z,67.20
2023-04-09T02:14:28.325Z,67.10
2023-04-09T02:16:56.441Z,67.10
2023-04-09T02:19:25.209Z,67.50
2023-04-09T02:21:52.911Z,67.50
2023-04-09T02:24:20.152Z,67.70
2023-04-09T02:26:47.785Z,67.80
2023-04-09T02:29:15.354Z,67.70
2023-04-09T02:31:42.529Z,68.00
2023-04-09T02:34:09.715Z,68.20
2023-04-09T02:36:38.203Z,68.30
2023-04-09T02:39:05.539Z,68.40
2023-04-09T02:41:32.754Z,68.30
2023-04-09T02:44:00.356Z,68.70
2023-04-09T02:46:27.642Z,68.40
2023-04-09T02:48:55.061Z,68.70
2023-04-09T02:51:22.516Z,68.90
2023-04-09T02:53:51.094Z,68.90
2023-04-09T02:56:18.344Z,68.30
2023-04-09T02:58:45.677Z,68.30
2023-04-09T03:01:12.902Z,68.70
2023-04-09T03:03:42.169Z,68.60
2023-04-09T03:06:09.714Z,68.50
2023-04-09T03:08:37.100Z,68.00
2023-04-09T03:11:06.381Z,67.80
2023-04-09T03:13:33.557Z,67.60
2023-04-09T03:16:00.815Z,67.40
2023-04-09T03:18:28.176Z,67.50
2023-04-09T03:20:55.452Z,67.10
2023-04-09T03:23:22.989Z,67.20
2023-04-09T03:26:00.723Z,66.80
2023-04-09T03:28:29.525Z,66.80
2023-04-09T03:30:57.040Z,67.60
2023-04-09T03:33:25.547Z,67.10
2023-04-09T03:35:57.869Z,67.50
2023-04-09T03:38:45.476Z,68.10
2023-04-09T03:41:24.021Z,68.50
2023-04-09T03:43:53.625Z,68.60
2023-04-09T03:46:26.268Z,68.50
2023-04-09T03:48:53.701Z,68.70
2023-04-09T03:51:21.812Z,68.60
2023-04-09T03:53:54.854Z,69.10
2023-04-09T03:56:22.284Z,69.70
2023-04-09T03:58:50.449Z,69.30
2023-04-09T04:01:22.643Z,69.10
2023-04-09T04:03:55.854Z,69.30
2023-04-09T04:06:25.051Z,69.70
2023-04-09T04:09:04.044Z,69.70
2023-04-09T04:11:40.507Z,69.00
2023-04-09T04:14:07.747Z,69.00
2023-04-09T04:16:36.334Z,69.70
2023-04-09T04:19:05.939Z,69.80
2023-04-09T04:21:39.454Z,70.00
2023-04-09T04:24:07.370Z,70.10
2023-04-09T04:26:34.586Z,70.10
2023-04-09T04:29:01.898Z,70.10
2023-04-09T04:31:50.243Z,69.70
2023-04-09T04:34:20.974Z,69.80
2023-04-09T04:36:55.021Z,69.50
2023-04-09T04:39:22.283Z,70.20
2023-04-09T04:41:55.666Z,70.50
2023-04-09T04:44:26.202Z,70.70
2023-04-09T04:47:03.446Z,71.20
2023-04-09T04:49:31.635Z,71.90
2023-04-09T04:51:59.031Z,71.90
2023-04-09T04:54:26.316Z,72.40
2023-04-09T04:56:57.349Z,73.10
2023-04-09T04:59:39.788Z,73.20
2023-04-09T05:02:10.619Z,73.80
2023-04-09T05:04:51.334Z,73.70
2023-04-09T05:07:20.980Z,74.20
2023-04-09T05:09:51.862Z,73.70
2023-04-09T05:12:19.700Z,73.20
2023-04-09T05:14:51.251Z,74.40
2023-04-09T05:17:20.091Z,74.20
2023-04-09T05:19:51.580Z,73.50
2023-04-09T05:22:20.551Z,73.60
2023-04-09T05:24:47.940Z,73.80
2023-04-09T05:27:15.877Z,73.90
2023-04-09T05:29:43.545Z,75.00
2023-04-09T05:32:11.076Z,74.30
2023-04-09T05:34:41.753Z,74.90
2023-04-09T05:37:08.964Z,75.50
2023-04-09T05:39:36.191Z,76.50
2023-04-09T05:42:04.665Z,76.40
2023-04-09T05:44:42.281Z,76.20
2023-04-09T05:47:17.884Z,76.40
2023-04-09T05:50:01.602Z,77.00
2023-04-09T05:52:28.819Z,76.60
2023-04-09T05:54:56.453Z,76.50
2023-04-09T05:57:31.807Z,76.60
2023-04-09T06:00:02.627Z,76.20
2023-04-09T06:02:30.362Z,75.10
2023-04-09T06:04:57.733Z,74.70
2023-04-09T06:07:27.250Z,74.40
2023-04-09T06:09:55.467Z,74.00
2023-04-09T06:12:22.646Z,74.90
2023-04-09T06:14:49.939Z,75.10
2023-04-09T06:17:17.309Z,75.10
2023-04-09T06:19:44.564Z,75.50
2023-04-09T06:22:11.871Z,74.90
2023-04-09T06:24:40.433Z,74.80
2023-04-09T06:27:07.904Z,74.50
2023-04-09T06:29:35.303Z,74.30
2023-04-09T06:32:02.796Z,74.30
2023-04-09T06:34:30.215Z,74.10
2023-04-09T06:36:57.441Z,73.80
2023-04-09T06:39:24.647Z,73.90
2023-04-09T06:41:53.245Z,73.50
2023-04-09T06:44:33.443Z,73.00
2023-04-09T06:47:01.108Z,73.20
2023-04-09T06:49:28.354Z,72.90
2023-04-09T06:51:56.086Z,73.30
2023-04-09T06:54:23.296Z,73.20
2023-04-09T06:56:50.643Z,72.90
2023-04-09T06:59:19.187Z,72.80
2023-04-09T07:01:47.749Z,73.00
2023-04-09T07:04:15.521Z,72.70
2023-04-09T07:06:42.803Z,71.90
2023-04-09T07:09:10.164Z,71.10
2023-04-09T07:11:37.537Z,71.80
2023-04-09T07:14:04.717Z,72.30
2023-04-09T07:16:33.335Z,71.80
2023-04-09T07:19:00.679Z,72.10
2023-04-09T07:21:28.317Z,72.00
2023-04-09T07:23:56.315Z,71.70
2023-04-09T07:26:23.550Z,71.70
2023-04-09T07:28:50.784Z,71.70
2023-04-09T07:31:18.103Z,71.40
2023-04-09T07:33:46.925Z,71.10
2023-04-09T07:36:14.256Z,71.60
2023-04-09T07:38:41.491Z,71.50
2023-04-09T07:41:11.097Z,71.50
2023-04-09T07:43:38.680Z,71.40
2023-04-09T07:46:06.531Z,71.20
2023-04-09T07:48:33.744Z,71.40
2023-04-09T07:51:02.269Z,71.50
2023-04-09T07:53:29.475Z,71.10
2023-04-09T07:55:57.077Z,71.00
2023-04-09T07:58:24.300Z,70.50
2023-04-09T08:00:51.567Z,70.20
2023-04-09T08:05:46.705Z,70.00
2023-04-09T08:08:15.327Z,69.60
2023-04-09T08:10:42.600Z,69.40
2023-04-09T08:13:11.911Z,69.20
2023-04-09T08:15:39.269Z,69.20
2023-04-09T08:18:07.027Z,69.20
2023-04-09T08:20:34.252Z,69.40
2023-04-09T08:23:01.770Z,69.10
2023-04-09T08:25:30.677Z,68.60
2023-04-09T08:27:58.137Z,68.70
2023-04-09T08:30:25.375Z,68.30
2023-04-09T08:32:53.107Z,68.20
2023-04-09T08:35:20.463Z,68.10
2023-04-09T08:37:47.739Z,68.00
2023-04-09T08:40:15.449Z,68.00
2023-04-09T08:42:47.720Z,67.60
2023-04-09T08:45:14.962Z,67.50
2023-04-09T08:47:43.452Z,67.70
2023-04-09T08:50:11.205Z,67.70
2023-04-09T08:52:38.973Z,67.40
2023-04-09T08:55:07.234Z,67.40
2023-04-09T08:57:38.024Z,67.00
2023-04-09T09:00:08.924Z,66.90
2023-04-09T09:02:36.756Z,66.50
2023-04-09T09:05:04.480Z,66.60
2023-04-09T09:07:32.098Z,66.40
2023-04-09T09:10:02.314Z,66.40
2023-04-09T09:12:32.078Z,66.10
2023-04-09T09:15:00.230Z,65.50
2023-04-09T09:17:28.944Z,65.90
2023-04-09T09:19:56.754Z,64.70
2023-04-09T09:22:25.397Z,64.70
2023-04-09T09:24:53.522Z,65.30
2023-04-09T09:27:36.256Z,64.40
2023-04-09T09:30:05.554Z,63.90
2023-04-09T09:32:34.371Z,64.40
2023-04-09T09:35:04.037Z,64.60
2023-04-09T09:37:31.933Z,64.40
2023-04-09T09:39:59.431Z,63.80
2023-04-09T09:42:27.504Z,63.70
2023-04-09T09:44:55.393Z,63.10
2023-04-09T09:47:23.527Z,62.40
2023-04-09T09:49:52.543Z,61.90
2023-04-09T09:52:24.806Z,62.00
2023-04-09T09:54:53.344Z,60.00
2023-04-09T09:57:23.576Z,61.40
2023-04-09T09:59:55.438Z,62.00
2023-04-09T10:02:24.312Z,61.70
2023-04-09T10:04:53.566Z,61.20
2023-04-09T10:07:22.286Z,60.50
2023-04-09T10:09:50.871Z,59.80
2023-04-09T10:12:22.677Z,57.50
2023-04-09T10:14:52.284Z,58.60
2023-04-09T10:17:19.672Z,60.00
2023-04-09T10:19:54.560Z,59.20
2023-04-09T10:22:27.738Z,58.20
2023-04-09T10:24:55.776Z,58.70
2023-04-09T10:27:23.051Z,58.40
2023-04-09T10:29:52.025Z,56.40
2023-04-09T10:32:23.719Z,55.60
2023-04-09T10:34:51.949Z,53.40
2023-04-09T10:37:24.117Z,53.80
2023-04-09T10:39:52.537Z,54.40
2023-04-09T10:42:22.425Z,53.30
2023-04-09T10:45:06.199Z,53.00
2023-04-09T10:47:34.684Z,52.40
2023-04-09T10:50:16.086Z,51.70
2023-04-09T10:52:44.738Z,50.00
2023-04-09T10:55:30.205Z,49.00
2023-04-09T10:57:57.507Z,50.50
2023-04-09T11:00:24.849Z,50.00
2023-04-09T11:03:10.634Z,49.20
2023-04-09T11:05:38.898Z,48.10
2023-04-09T11:08:12.126Z,47.40
2023-04-09T11:10:41.962Z,47.10
2023-04-09T11:13:11.947Z,45.80
2023-04-09T11:15:39.555Z,45.00
2023-04-09T11:18:07.078Z,45.40
2023-04-09T11:20:35.404Z,45.50
2023-04-09T11:23:02.772Z,44.90
2023-04-09T11:25:32.878Z,45.20
2023-04-09T11:28:02.850Z,41.50
2023-04-09T11:30:31.054Z,43.10
2023-04-09T11:32:58.338Z,42.40
2023-04-09T11:35:25.758Z,43.10
2023-04-09T11:37:54.028Z,42.40
2023-04-09T11:40:22.825Z,42.10
2023-04-09T11:42:53.338Z,42.10
2023-04-09T11:45:28.235Z,40.50
2023-04-09T11:47:56.156Z,42.20
2023-04-09T11:50:23.699Z,40.60
2023-04-09T11:52:51.158Z,41.00
2023-04-09T11:55:25.599Z,40.00
2023-04-09T11:57:57.347Z,40.50
2023-04-09T12:00:25.049Z,39.80
2023-04-09T12:02:59.743Z,39.80
2023-04-09T12:05:29.705Z,40.50
2023-04-09T12:08:01.205Z,39.50
2023-04-09T12:10:29.880Z,39.80
2023-04-09T12:13:03.279Z,40.10
2023-04-09T12:15:34.607Z,38.40
2023-04-09T12:18:02.455Z,38.30
2023-04-09T12:20:32.181Z,39.00
2023-04-09T12:23:01.156Z,37.50
2023-04-09T12:25:28.404Z,36.80
2023-04-09T12:27:56.579Z,37.60
2023-04-09T12:30:25.500Z,37.60
2023-04-09T12:32:53.647Z,36.90
2023-04-09T12:35:21.858Z,36.80
2023-04-09T12:37:49.651Z,36.60
2023-04-09T12:40:17.536Z,35.20
2023-04-09T12:42:45.497Z,36.50
2023-04-09T12:45:14.116Z,36.70
2023-04-09T12:47:42.889Z,36.20
2023-04-09T12:50:11.910Z,35.40
2023-04-09T12:52:39.332Z,36.00
2023-04-09T12:55:07.382Z,35.90
2023-04-09T12:57:34.843Z,35.10
2023-04-09T13:00:02.019Z,34.30
2023-04-09T13:02:30.086Z,34.60
2023-04-09T13:04:58.801Z,33.50
2023-04-09T13:07:29.106Z,35.00
2023-04-09T13:09:57.109Z,34.50
2023-04-09T13:12:25.041Z,34.90
2023-04-09T13:14:54.407Z,33.80
2023-04-09T13:17:22.432Z,35.00
2023-04-09T13:19:50.125Z,35.50
2023-04-09T13:22:19.096Z,34.50
2023-04-09T13:24:46.337Z,35.60
2023-04-09T13:27:13.780Z,35.50
2023-04-09T13:29:41.022Z,34.20
2023-04-09T13:32:10.492Z,35.50
2023-04-09T13:34:39.430Z,35.00
2023-04-09T13:37:06.991Z,34.10
2023-04-09T13:39:35.617Z,33.60
2023-04-09T13:42:10.086Z,33.50
2023-04-09T13:44:42.449Z,34.10
2023-04-09T13:47:11.241Z,35.00
2023-04-09T13:49:38.698Z,33.00
2023-04-09T13:52:06.172Z,33.20
2023-04-09T13:54:35.388Z,32.00
2023-04-09T13:57:03.081Z,32.80
2023-04-09T13:59:30.283Z,34.30
2023-04-09T14:01:57.588Z,34.20
2023-04-09T14:04:24.952Z,34.10
2023-04-09T14:06:52.385Z,34.10
2023-04-09T14:09:19.630Z,33.70
2023-04-09T14:11:49.325Z,33.30
2023-04-09T14:14:17.614Z,33.50
2023-04-09T14:16:44.811Z,32.30
2023-04-09T14:19:12.007Z,32.60
2023-04-09T14:21:39.649Z,33.10
2023-04-09T14:24:07.568Z,33.00
2023-04-09T14:26:34.766Z,33.20
2023-04-09T14:29:03.627Z,34.10
2023-04-09T14:31:30.895Z,33.80
2023-04-09T14:33:58.119Z,33.40
2023-04-09T14:36:26.945Z,33.70
2023-04-09T14:38:56.296Z,33.10
2023-04-09T14:41:25.152Z,33.40
2023-04-09T14:43:52.350Z,33.80
2023-04-09T14:46:22.118Z,33.50
2023-04-09T14:48:49.406Z,33.80
2023-04-09T14:51:16.680Z,33.10
2023-04-09T14:53:43.906Z,32.90
2023-04-09T14:56:11.241Z,34.10
2023-04-09T14:58:38.452Z,34.20
2023-04-09T15:01:06.291Z,33.80
2023-04-09T15:03:35.187Z,34.20
2023-04-09T15:06:02.581Z,34.90
2023-04-09T15:08:29.851Z,35.00
2023-04-09T15:10:57.080Z,34.40
2023-04-09T15:13:24.543Z,34.00
2023-04-09T15:15:51.911Z,35.10
2023-04-09T15:18:21.322Z,34.60
2023-04-09T15:20:51.169Z,34.40
2023-04-09T15:23:18.387Z,35.20
2023-04-09T15:25:45.924Z,34.90
2023-04-09T15:28:14.392Z,35.60
2023-04-09T15:30:41.853Z,36.20
2023-04-09T15:33:09.052Z,35.50
2023-04-09T15:35:36.367Z,35.40
2023-04-09T15:38:04.888Z,36.10
2023-04-09T15:40:32.062Z,35.80
2023-04-09T15:42:59.262Z,36.80
2023-04-09T15:45:26.721Z,35.30
2023-04-09T15:47:54.074Z,36.70
2023-04-09T15:50:21.491Z,36.70
2023-04-09T15:52:48.899Z,37.10
2023-04-09T15:55:17.557Z,36.60
2023-04-09T15:57:46.791Z,36.80
2023-04-09T16:00:15.317Z,37.40
2023-04-09T16:02:42.621Z,38.20
2023-04-09T16:05:10.357Z,37.80
2023-04-09T16:07:38.290Z,38.40
2023-04-09T16:10:06.390Z,38.50
2023-04-09T16:12:34.946Z,38.40
2023-04-09T16:15:02.469Z,38.20
2023-04-09T16:17:30.721Z,38.60
2023-04-09T16:19:58.010Z,38.90
2023-04-09T16:22:25.317Z,37.80
2023-04-09T16:24:52.504Z,38.60
2023-04-09T16:27:20.284Z,38.20
2023-04-09T16:29:48.881Z,38.30
2023-04-09T16:32:17.007Z,37.90
2023-04-09T16:34:44.217Z,37.90
2023-04-09T16:37:11.401Z,38.80
2023-04-09T16:39:38.631Z,38.50
2023-04-09T16:42:05.832Z,38.70
2023-04-09T16:44:33.294Z,38.20
2023-04-09T16:47:02.678Z,38.80
2023-04-09T16:49:31.308Z,38.50
2023-04-09T16:51:58.770Z,38.70
2023-04-09T16:54:26.013Z,38.40
2023-04-09T16:56:53.260Z,38.80
2023-04-09T16:59:21.065Z,39.70
2023-04-09T17:01:49.059Z,39.60
2023-04-09T17:04:17.935Z,40.30
2023-04-09T17:06:45.797Z,40.60
2023-04-09T17:09:13.012Z,40.90
2023-04-09T17:11:40.303Z,41.10
2023-04-09T17:14:07.516Z,41.70
2023-04-09T17:16:34.760Z,41.70
2023-04-09T17:19:02.023Z,42.20
2023-04-09T17:21:30.927Z,42.50
2023-04-09T17:23:58.152Z,42.70
2023-04-09T17:26:25.437Z,43.10
2023-04-09T17:28:52.790Z,43.50
2023-04-09T17:31:24.047Z,43.90
2023-04-09T17:33:52.239Z,44.60
2023-04-09T17:36:20.640Z,44.90
2023-04-09T17:38:49.334Z,45.00
2023-04-09T17:41:16.501Z,45.50
2023-04-09T17:43:43.709Z,45.90
2023-04-09T17:46:11.631Z,46.30
2023-04-09T17:48:39.177Z,46.60
2023-04-09T17:51:07.194Z,46.90
2023-04-09T17:53:34.464Z,47.10
2023-04-09T17:56:04.024Z,47.40
2023-04-09T17:58:31.392Z,47.70
2023-04-09T18:00:59.522Z,48.00
2023-04-09T18:03:26.910Z,48.20
2023-04-09T18:05:54.396Z,48.60
2023-04-09T18:08:21.743Z,48.80
2023-04-09T18:11:08.868Z,49.10
2023-04-09T18:13:40.351Z,49.40
2023-04-09T18:16:09.067Z,49.80
2023-04-09T18:18:36.510Z,50.00
2023-04-09T18:21:04.612Z,50.20
2023-04-09T18:23:31.818Z,50.70
2023-04-09T18:25:59.004Z,50.90
2023-04-09T18:28:26.278Z,51.30
2023-04-09T18:30:54.891Z,51.40
2023-04-09T18:33:23.022Z,51.50
2023-04-09T18:35:50.316Z,51.80
2023-04-09T18:38:17.794Z,52.20
2023-04-09T18:40:45.027Z,52.40
2023-04-09T18:43:12.406Z,52.50
2023-04-09T18:45:39.714Z,52.60
2023-04-09T18:48:08.892Z,53.10
2023-04-09T18:50:36.352Z,53.30
2023-04-09T18:53:05.467Z,53.50
2023-04-09T18:55:37.556Z,53.90
2023-04-09T18:58:08.442Z,53.90
2023-04-09T19:00:36.061Z,54.20
2023-04-09T19:03:04.566Z,54.40
2023-04-09T19:05:33.485Z,54.60
2023-04-09T19:08:01.980Z,54.80
2023-04-09T19:10:29.489Z,55.30
2023-04-09T19:12:56.685Z,55.20
2023-04-09T19:15:29.190Z,55.30
2023-04-09T19:17:56.960Z,55.90
2023-04-09T19:20:24.220Z,56.20
2023-04-09T19:22:54.467Z,56.00
2023-04-09T19:25:22.774Z,56.50
2023-04-09T19:27:50.263Z,56.40
2023-04-09T19:30:18.439Z,56.80
2023-04-09T19:32:45.939Z,56.60
2023-04-09T19:35:13.360Z,56.80
2023-04-09T19:37:40.755Z,57.10
2023-04-09T19:40:10.570Z,57.20
2023-04-09T19:42:37.875Z,57.30
2023-04-09T19:45:06.000Z,57.40
2023-04-09T19:47:34.757Z,57.40
2023-04-09T19:50:02.212Z,58.00
2023-04-09T19:52:29.444Z,58.20
2023-04-09T19:54:56.705Z,58.30
2023-04-09T19:57:26.368Z,58.40
2023-04-09T19:59:53.993Z,58.50
2023-04-09T20:02:21.529Z,58.50
2023-04-09T20:04:48.865Z,58.70
2023-04-09T20:07:16.082Z,58.80
2023-04-09T20:09:43.546Z,58.50
2023-04-09T20:12:10.934Z,59.60
2023-04-09T20:14:39.598Z,59.90
2023-04-09T20:17:08.805Z,60.30
2023-04-09T20:19:36.131Z,60.00
2023-04-09T20:22:03.391Z,60.20
2023-04-09T20:24:30.672Z,60.60
2023-04-09T20:26:59.504Z,60.70
2023-04-09T20:29:26.827Z,60.90
2023-04-09T20:31:55.443Z,60.80
2023-04-09T20:34:26.593Z,60.90
2023-04-09T20:36:54.046Z,61.10
2023-04-09T20:39:21.772Z,60.50
2023-04-09T20:41:49.007Z,60.60
2023-04-09T20:44:16.592Z,60.60
2023-04-09T20:46:43.894Z,60.60
2023-04-09T20:49:12.554Z,61.20
2023-04-09T20:51:39.901Z,61.60
2023-04-09T20:54:07.132Z,61.60
2023-04-09T20:56:34.543Z,62.10
2023-04-09T20:59:01.892Z,61.90
2023-04-09T21:01:29.458Z,61.80
2023-04-09T21:03:57.528Z,62.00
2023-04-09T21:06:26.178Z,61.80
2023-04-09T21:08:55.705Z,62.00
2023-04-09T21:11:23.349Z,62.20
2023-04-09T21:13:54.935Z,62.70
2023-04-09T21:16:23.051Z,63.00
2023-04-09T21:18:50.538Z,63.10
2023-04-09T21:21:18.018Z,62.80
2023-04-09T21:23:46.626Z,62.70
2023-04-09T21:26:14.942Z,62.80
2023-04-09T21:28:42.211Z,62.70
2023-04-09T21:31:09.929Z,62.90
2023-04-09T21:33:38.962Z,63.60
2023-04-09T21:36:07.938Z,63.80
2023-04-09T21:38:35.423Z,64.30
2023-04-09T21:41:04.589Z,64.10
2023-04-09T21:43:31.798Z,63.70
2023-04-09T21:45:59.530Z,63.80
2023-04-09T21:48:28.081Z,64.10
2023-04-09T21:50:55.267Z,64.40
2023-04-09T21:53:22.439Z,64.60
2023-04-09T21:55:49.615Z,64.60
2023-04-09T21:58:18.143Z,64.60
2023-04-09T22:00:45.392Z,64.80
2023-04-09T22:03:12.771Z,64.90
2023-04-09T22:05:40.140Z,64.50
2023-04-09T22:08:07.346Z,64.50
2023-04-09T22:10:34.690Z,64.60
2023-04-09T22:13:01.911Z,65.20
2023-04-09T22:15:30.439Z,65.10
2023-04-09T22:17:57.679Z,65.00
2023-04-09T22:20:26.344Z,65.50
2023-04-09T22:22:54.147Z,66.00
2023-04-09T22:25:22.172Z,66.00
2023-04-09T22:27:53.058Z,65.60
2023-04-09T22:30:24.392Z,64.90
2023-04-09T22:32:53.028Z,65.00
2023-04-09T22:35:20.531Z,65.40
2023-04-09T22:37:47.764Z,66.30
2023-04-09T22:40:16.001Z,66.40
2023-04-09T22:42:43.526Z,66.70
2023-04-09T22:45:11.659Z,66.80
2023-04-09T22:47:39.117Z,66.50
2023-04-09T22:50:08.964Z,66.90
2023-04-09T22:52:36.277Z,66.70
2023-04-09T22:55:03.835Z,66.00
2023-04-09T22:57:31.053Z,65.80
2023-04-09T22:59:58.241Z,66.50
2023-04-09T23:02:26.059Z,66.80
2023-04-09T23:04:53.513Z,67.00
2023-04-09T23:07:22.052Z,67.00
2023-04-09T23:09:49.507Z,67.00
2023-04-09T23:12:16.740Z,67.00
2023-04-09T23:14:43.911Z,67.30
2023-04-09T23:17:11.195Z,67.10
2023-04-09T23:19:38.397Z,67.10
2023-04-09T23:22:06.094Z,66.60
2023-04-09T23:24:34.598Z,67.30
2023-04-09T23:27:02.575Z,67.20
2023-04-09T23:29:29.775Z,67.50
2023-04-09T23:31:57.035Z,67.30
2023-04-09T23:34:24.289Z,67.40
2023-04-09T23:36:51.609Z,67.10
2023-04-09T23:39:18.802Z,67.40
2023-04-09T23:41:47.587Z,67.30
2023-04-09T23:44:14.831Z,67.10
2023-04-09T23:46:42.004Z,67.60
2023-04-09T23:49:09.287Z,67.40
2023-04-09T23:51:36.534Z,67.20
2023-04-09T23:54:03.780Z,67.50
2023-04-09T23:56:31.160Z,67.50
2023-04-09T23:58:59.703Z,67.50
